createdAt,value
2022-10-21T00:01:20.578Z,3.17
2022-10-21T00:06:42.412Z,3.11
2022-10-21T00:12:04.408Z,3.04
2022-10-21T00:17:26.447Z,3.16
2022-10-21T00:22:48.258Z,3.15
2022-10-21T00:28:10.075Z,3.07
2022-10-21T00:33:31.923Z,3.04
2022-10-21T00:38:53.773Z,3.06
2022-10-21T00:44:15.718Z,2.90
2022-10-21T00:49:45.233Z,2.87
2022-10-21T00:55:07.529Z,2.76
2022-10-21T01:00:29.737Z,2.56
2022-10-21T01:05:52.816Z,2.61
2022-10-21T01:11:18.301Z,2.39
2022-10-21T01:17:20.431Z,2.58
2022-10-21T01:23:14.801Z,2.41
2022-10-21T01:29:06.092Z,2.42
2022-10-21T01:34:56.096Z,2.37
2022-10-21T01:40:25.772Z,2.41
2022-10-21T01:45:56.464Z,2.32
2022-10-21T01:51:20.146Z,2.20
2022-10-21T01:56:44.583Z,2.03
2022-10-21T02:02:09.205Z,2.10
2022-10-21T02:07:31.140Z,2.10
2022-10-21T02:12:57.053Z,2.08
2022-10-21T02:18:22.213Z,2.11
2022-10-21T02:23:57.349Z,2.16
2022-10-21T02:29:24.149Z,2.09
2022-10-21T02:34:51.937Z,2.16
2022-10-21T02:40:21.994Z,2.11
2022-10-21T02:45:46.552Z,2.18
2022-10-21T02:51:08.543Z,2.03
2022-10-21T03:01:57.305Z,2.14
2022-10-21T03:07:19.139Z,1.98
2022-10-21T03:12:40.952Z,1.90
2022-10-21T03:18:02.829Z,1.83
2022-10-21T03:23:24.690Z,1.96
2022-10-21T03:28:46.489Z,1.80
2022-10-21T03:34:08.307Z,1.89
2022-10-21T03:39:30.182Z,1.86
2022-10-21T03:44:51.975Z,1.81
2022-10-21T03:50:17.335Z,1.82
2022-10-21T03:55:41.037Z,1.89
2022-10-21T04:01:02.870Z,1.90
2022-10-21T04:06:24.718Z,1.93
2022-10-21T04:11:46.527Z,1.85
2022-10-21T04:17:08.377Z,1.83
2022-10-21T04:22:30.201Z,1.77
2022-10-21T04:27:52.003Z,1.64
2022-10-21T04:33:13.811Z,1.78
2022-10-21T04:38:35.619Z,1.60
2022-10-21T04:43:57.393Z,1.74
2022-10-21T04:49:19.423Z,1.76
2022-10-21T04:54:41.267Z,1.89
2022-10-21T05:00:05.082Z,1.99
2022-10-21T05:05:26.928Z,2.23
2022-10-21T05:10:48.929Z,2.35
2022-10-21T05:16:10.823Z,2.41
2022-10-21T05:21:32.792Z,2.61
2022-10-21T05:26:54.674Z,3.15
2022-10-21T05:32:16.553Z,3.33
2022-10-21T05:37:38.430Z,3.89
2022-10-21T05:43:00.251Z,6.06
2022-10-21T05:48:22.512Z,8.27
2022-10-21T05:53:44.345Z,11.87
2022-10-21T05:59:09.326Z,13.08
2022-10-21T06:04:36.337Z,6.06
2022-10-21T06:10:00.731Z,5.53
2022-10-21T06:15:22.614Z,4.91
2022-10-21T06:20:44.510Z,4.94
2022-10-21T06:26:12.911Z,5.29
2022-10-21T06:31:34.774Z,4.49
2022-10-21T06:36:56.659Z,4.41
2022-10-21T06:42:18.753Z,4.72
2022-10-21T06:47:41.054Z,4.68
2022-10-21T06:53:03.357Z,6.86
2022-10-21T06:58:25.172Z,9.27
2022-10-21T07:03:47.317Z,10.68
2022-10-21T07:09:10.032Z,11.63
2022-10-21T07:14:32.052Z,10.66
2022-10-21T07:19:53.882Z,10.44
2022-10-21T07:25:15.812Z,11.67
2022-10-21T07:30:44.696Z,13.10
2022-10-21T07:36:08.083Z,14.62
2022-10-21T07:41:33.041Z,12.65
2022-10-21T07:46:55.568Z,14.13
2022-10-21T07:52:18.080Z,12.20
2022-10-21T07:57:40.415Z,10.31
2022-10-21T08:03:02.255Z,9.07
2022-10-21T08:08:24.811Z,9.24
2022-10-21T08:13:48.109Z,8.12
2022-10-21T08:19:18.146Z,7.83
2022-10-21T08:24:42.317Z,7.53
2022-10-21T08:30:04.843Z,8.39
2022-10-21T08:35:28.119Z,9.14
2022-10-21T08:40:52.313Z,8.40
2022-10-21T08:46:24.387Z,8.80
2022-10-21T08:51:54.450Z,8.65
2022-10-21T08:57:16.705Z,9.87
2022-10-21T09:02:52.401Z,9.18
2022-10-21T09:08:20.274Z,8.93
2022-10-21T09:14:00.223Z,8.46
2022-10-21T09:19:47.827Z,8.99
2022-10-21T09:25:45.282Z,9.04
2022-10-21T09:31:16.172Z,11.15
2022-10-21T09:36:42.023Z,10.35
2022-10-21T09:42:10.701Z,10.53
2022-10-21T09:47:35.400Z,10.54
2022-10-21T09:53:15.330Z,11.81
2022-10-21T09:58:37.146Z,10.65
2022-10-21T10:03:59.164Z,11.74
2022-10-21T10:09:28.702Z,11.70
2022-10-21T10:14:50.956Z,11.10
2022-10-21T10:20:19.817Z,10.71
2022-10-21T10:25:47.737Z,11.03
2022-10-21T10:31:09.895Z,10.77
2022-10-21T10:36:36.272Z,10.80
2022-10-21T10:41:58.728Z,10.14
2022-10-21T10:47:26.201Z,10.21
2022-10-21T10:52:48.031Z,10.45
2022-10-21T10:58:13.466Z,10.76
2022-10-21T11:03:44.324Z,10.35
2022-10-21T11:09:07.756Z,10.66
2022-10-21T11:14:29.799Z,10.14
2022-10-21T11:19:59.649Z,10.14
2022-10-21T11:25:42.569Z,11.29
2022-10-21T11:31:13.457Z,11.24
2022-10-21T11:36:40.695Z,10.58
2022-10-21T11:42:17.559Z,11.23
2022-10-21T11:47:55.416Z,11.64
2022-10-21T11:53:41.913Z,11.58
2022-10-21T11:59:20.866Z,11.15
2022-10-21T12:04:51.953Z,11.42
2022-10-21T12:10:29.848Z,11.36
2022-10-21T12:15:58.606Z,11.23
2022-10-21T12:21:25.173Z,11.10
2022-10-21T12:27:23.385Z,10.86
2022-10-21T12:33:16.416Z,11.03
2022-10-21T12:38:57.241Z,10.98
2022-10-21T12:44:21.854Z,11.21
2022-10-21T12:49:44.097Z,11.13
2022-10-21T12:55:16.746Z,11.38
2022-10-21T13:00:38.551Z,11.14
2022-10-21T13:06:03.061Z,11.14
2022-10-21T13:11:39.301Z,11.03
2022-10-21T13:17:28.878Z,10.42
2022-10-21T13:22:53.106Z,10.65
2022-10-21T13:28:14.876Z,10.60
2022-10-21T13:33:38.407Z,10.62
2022-10-21T13:39:04.968Z,10.67
2022-10-21T13:44:40.428Z,10.24
2022-10-21T13:50:21.666Z,10.74
2022-10-21T13:55:53.718Z,10.75
2022-10-21T14:01:18.303Z,10.69
2022-10-21T14:06:46.278Z,10.70
2022-10-21T14:12:21.794Z,10.54
2022-10-21T14:17:50.563Z,10.59
2022-10-21T14:23:19.410Z,10.65
2022-10-21T14:28:44.127Z,10.72
2022-10-21T14:34:06.043Z,10.61
2022-10-21T14:39:28.690Z,10.51
2022-10-21T14:45:02.733Z,10.45
2022-10-21T14:50:25.074Z,10.49
2022-10-21T14:55:48.564Z,10.42
2022-10-21T15:01:21.665Z,10.49
2022-10-21T15:06:59.786Z,10.47
2022-10-21T15:12:21.701Z,10.29
2022-10-21T15:17:43.561Z,10.26
2022-10-21T15:23:05.428Z,10.47
2022-10-21T15:28:32.903Z,10.54
2022-10-21T15:33:56.953Z,10.48
2022-10-21T15:39:18.967Z,10.44
2022-10-21T15:44:41.131Z,10.43
2022-10-21T15:50:13.892Z,10.20
2022-10-21T15:55:35.952Z,10.23
2022-10-21T16:00:58.686Z,10.18
2022-10-21T16:06:22.274Z,10.13
2022-10-21T16:11:58.859Z,10.02
2022-10-21T16:17:21.645Z,9.99
2022-10-21T16:22:43.512Z,9.98
2022-10-21T16:28:05.574Z,9.89
2022-10-21T16:33:27.621Z,9.90
2022-10-21T16:38:50.630Z,9.87
2022-10-21T16:44:12.490Z,9.80
2022-10-21T16:49:34.524Z,9.83
2022-10-21T16:54:56.404Z,9.77
2022-10-21T17:00:18.430Z,9.68
2022-10-21T17:05:40.393Z,9.76
2022-10-21T17:11:02.274Z,9.63
2022-10-21T17:16:24.336Z,9.60
2022-10-21T17:21:46.503Z,9.62
2022-10-21T17:27:08.486Z,9.46
2022-10-21T17:32:30.697Z,9.49
2022-10-21T17:37:52.907Z,9.49
2022-10-21T17:43:14.867Z,9.42
2022-10-21T17:48:36.748Z,9.40
2022-10-21T17:53:58.905Z,9.26
2022-10-21T17:59:20.883Z,9.20
2022-10-21T18:04:42.782Z,9.18
2022-10-21T18:10:05.872Z,9.09
2022-10-21T18:15:27.699Z,9.02
2022-10-21T18:20:49.585Z,8.88
2022-10-21T18:26:14.494Z,8.79
2022-10-21T18:31:39.077Z,8.70
2022-10-21T18:37:00.907Z,8.70
2022-10-21T18:42:22.752Z,8.64
2022-10-21T18:47:44.669Z,8.63
2022-10-21T18:53:06.523Z,8.76
2022-10-21T18:58:30.389Z,8.64
2022-10-21T19:03:53.037Z,8.69
2022-10-21T19:09:21.056Z,8.55
2022-10-21T19:14:42.912Z,8.58
2022-10-21T19:20:05.593Z,8.60
2022-10-21T19:25:27.717Z,8.61
2022-10-21T19:30:49.645Z,8.58
2022-10-21T19:36:11.826Z,8.65
2022-10-21T19:41:33.934Z,8.57
2022-10-21T19:46:55.878Z,8.63
2022-10-21T19:52:17.745Z,8.57
2022-10-21T19:57:39.685Z,8.49
2022-10-21T20:03:01.769Z,8.50
2022-10-21T20:08:23.888Z,8.64
2022-10-21T20:13:47.031Z,8.48
2022-10-21T20:19:10.495Z,8.45
2022-10-21T20:24:32.316Z,8.62
2022-10-21T20:29:54.248Z,8.45
2022-10-21T20:35:16.094Z,8.55
2022-10-21T20:40:38.351Z,8.57
2022-10-21T20:46:05.251Z,8.67
2022-10-21T20:51:29.045Z,8.62
2022-10-21T20:56:51.477Z,8.66
2022-10-21T21:02:13.419Z,8.62
2022-10-21T21:07:35.962Z,8.72
2022-10-21T21:12:57.917Z,8.71
2022-10-21T21:18:19.809Z,8.80
2022-10-21T21:23:43.342Z,8.78
2022-10-21T21:29:06.945Z,8.94
2022-10-21T21:34:28.820Z,8.91
2022-10-21T21:39:50.769Z,8.94
2022-10-21T21:45:12.597Z,8.97
2022-10-21T21:50:34.464Z,9.02
2022-10-21T21:55:59.768Z,9.01
2022-10-21T22:01:28.109Z,8.91
2022-10-21T22:06:49.997Z,8.91
2022-10-21T22:12:14.473Z,8.91
2022-10-21T22:17:37.129Z,8.97
2022-10-21T22:22:59.514Z,8.98
2022-10-21T22:28:21.355Z,8.94
2022-10-21T22:39:05.843Z,8.89
2022-10-21T22:44:27.690Z,8.85
2022-10-21T22:49:50.739Z,8.92
2022-10-21T22:55:12.710Z,8.95
2022-10-21T23:00:34.700Z,8.88
2022-10-21T23:05:56.533Z,8.88
2022-10-21T23:11:18.388Z,8.88
2022-10-21T23:16:40.271Z,8.77
2022-10-21T23:22:02.097Z,8.88
2022-10-21T23:27:23.923Z,8.87
2022-10-21T23:32:46.214Z,8.78
2022-10-21T23:38:08.142Z,8.79
2022-10-21T23:43:30.826Z,8.82
2022-10-21T23:48:52.652Z,8.83
2022-10-21T23:54:14.505Z,8.93
2022-10-21T23:59:36.428Z,8.89
